sensor_id;sensor_type;location;lat;lon;timestamp;pressure;altitude;pressure_sealevel;temperature;humidity
60015;BME280;45867;52.480;6.056;2023-05-11T00:01:07;101174.94;;;11.52;100.00
60015;BME280;45867;52.480;6.056;2023-05-11T00:03:33;101167.25;;;11.51;100.00
60015;BME280;45867;52.480;6.056;2023-05-11T00:05:59;101173.38;;;11.51;100.00
60015;BME280;45867;52.480;6.056;2023-05-11T00:08:24;101167.00;;;11.52;100.00
60015;BME280;45867;52.480;6.056;2023-05-11T00:10:50;101172.03;;;11.54;100.00
60015;BME280;45867;52.480;6.056;2023-05-11T00:13:15;101171.50;;;11.52;100.00
60015;BME280;45867;52.480;6.056;2023-05-11T00:15:41;101165.41;;;11.51;100.00
60015;BME280;45867;52.480;6.056;2023-05-11T00:18:07;101169.91;;;11.51;100.00
60015;BME280;45867;52.480;6.056;2023-05-11T00:20:32;101164.34;;;11.52;100.00
60015;BME280;45867;52.480;6.056;2023-05-11T00:22:57;101159.28;;;11.56;100.00
60015;BME280;45867;52.480;6.056;2023-05-11T00:25:23;101162.22;;;11.60;100.00
60015;BME280;45867;52.480;6.056;2023-05-11T00:27:48;101160.34;;;11.55;100.00
60015;BME280;45867;52.480;6.056;2023-05-11T00:30:13;101159.28;;;11.56;100.00
60015;BME280;45867;52.480;6.056;2023-05-11T00:32:42;101160.88;;;11.52;100.00
60015;BME280;45867;52.480;6.056;2023-05-11T00:35:09;101164.06;;;11.49;100.00
60015;BME280;45867;52.480;6.056;2023-05-11T00:37:36;101161.41;;;11.49;100.00
60015;BME280;45867;52.480;6.056;2023-05-11T00:40:01;101164.31;;;11.47;100.00
60015;BME280;45867;52.480;6.056;2023-05-11T00:42:27;101162.47;;;11.48;100.00
60015;BME280;45867;52.480;6.056;2023-05-11T00:44:52;101159.31;;;11.46;100.00
60015;BME280;45867;52.480;6.056;2023-05-11T00:47:17;101158.47;;;11.45;100.00
60015;BME280;45867;52.480;6.056;2023-05-11T00:49:43;101157.97;;;11.43;100.00
60015;BME280;45867;52.480;6.056;2023-05-11T00:52:10;101155.81;;;11.45;100.00
60015;BME280;45867;52.480;6.056;2023-05-11T00:54:35;101149.47;;;11.41;100.00
60015;BME280;45867;52.480;6.056;2023-05-11T00:57:02;101147.34;;;11.43;100.00
60015;BME280;45867;52.480;6.056;2023-05-11T00:59:28;101161.13;;;11.45;100.00
60015;BME280;45867;52.480;6.056;2023-05-11T01:01:54;101159.00;;;11.47;100.00
60015;BME280;45867;52.480;6.056;2023-05-11T01:04:19;101159.56;;;11.44;100.00
60015;BME280;45867;52.480;6.056;2023-05-11T01:06:54;101153.44;;;11.44;100.00
60015;BME280;45867;52.480;6.056;2023-05-11T01:09:51;101158.75;;;11.44;100.00
60015;BME280;45867;52.480;6.056;2023-05-11T01:14:57;101170.41;;;11.43;100.00
60015;BME280;45867;52.480;6.056;2023-05-11T01:17:33;101178.91;;;11.45;100.00
60015;BME280;45867;52.480;6.056;2023-05-11T01:20:10;101177.34;;;11.44;100.00
60015;BME280;45867;52.480;6.056;2023-05-11T01:22:58;101167.50;;;11.44;100.00
60015;BME280;45867;52.480;6.056;2023-05-11T01:30:50;101179.19;;;11.48;100.00
60015;BME280;45867;52.480;6.056;2023-05-11T01:33:22;101175.19;;;11.51;100.00
60015;BME280;45867;52.480;6.056;2023-05-11T01:35:51;101173.09;;;11.53;100.00
60015;BME280;45867;52.480;6.056;2023-05-11T01:38:20;101169.09;;;11.50;100.00
60015;BME280;45867;52.480;6.056;2023-05-11T01:40:51;101166.72;;;11.49;100.00
60015;BME280;45867;52.480;6.056;2023-05-11T01:43:20;101167.78;;;11.48;100.00
60015;BME280;45867;52.480;6.056;2023-05-11T01:45:49;101170.69;;;11.46;100.00
60015;BME280;45867;52.480;6.056;2023-05-11T01:48:18;101172.81;;;11.44;100.00
60015;BME280;45867;52.480;6.056;2023-05-11T01:50:44;101171.72;;;11.40;100.00
60015;BME280;45867;52.480;6.056;2023-05-11T01:53:11;101168.56;;;11.38;100.00
60015;BME280;45867;52.480;6.056;2023-05-11T01:55:38;101169.34;;;11.39;100.00
60015;BME280;45867;52.480;6.056;2023-05-11T01:58:07;101173.59;;;11.40;100.00
60015;BME280;45867;52.480;6.056;2023-05-11T02:00:35;101172.25;;;11.37;100.00
60015;BME280;45867;52.480;6.056;2023-05-11T02:03:01;101161.13;;;11.30;100.00
60015;BME280;45867;52.480;6.056;2023-05-11T02:05:29;101169.09;;;11.35;100.00
60015;BME280;45867;52.480;6.056;2023-05-11T02:07:57;101175.47;;;11.39;100.00
60015;BME280;45867;52.480;6.056;2023-05-11T02:10:24;101167.78;;;11.38;100.00
60015;BME280;45867;52.480;6.056;2023-05-11T02:12:52;101167.22;;;11.36;100.00
60015;BME280;45867;52.480;6.056;2023-05-11T02:15:19;101164.59;;;11.36;100.00
60015;BME280;45867;52.480;6.056;2023-05-11T02:17:45;101166.16;;;11.31;100.00
60015;BME280;45867;52.480;6.056;2023-05-11T02:20:11;101171.44;;;11.31;100.00
60015;BME280;45867;52.480;6.056;2023-05-11T02:22:38;101173.31;;;11.31;100.00
60015;BME280;45867;52.480;6.056;2023-05-11T02:25:06;101167.75;;;11.27;100.00
60015;BME280;45867;52.480;6.056;2023-05-11T02:27:32;101160.34;;;11.29;100.00
60015;BME280;45867;52.480;6.056;2023-05-11T02:30:00;101170.13;;;11.34;100.00
60015;BME280;45867;52.480;6.056;2023-05-11T02:32:27;101160.88;;;11.42;100.00
60015;BME280;45867;52.480;6.056;2023-05-11T02:34:59;101170.69;;;11.36;100.00
60015;BME280;45867;52.480;6.056;2023-05-11T02:37:26;101175.97;;;11.36;100.00
60015;BME280;45867;52.480;6.056;2023-05-11T02:39:58;101179.72;;;11.35;100.00
60015;BME280;45867;52.480;6.056;2023-05-11T02:42:26;101183.16;;;11.36;100.00
60015;BME280;45867;52.480;6.056;2023-05-11T02:45:13;101177.56;;;11.27;100.00
60015;BME280;45867;52.480;6.056;2023-05-11T02:47:46;101184.22;;;11.29;100.00
60015;BME280;45867;52.480;6.056;2023-05-11T02:50:12;101180.72;;;11.24;100.00
60015;BME280;45867;52.480;6.056;2023-05-11T02:52:44;101176.22;;;11.19;100.00
60015;BME280;45867;52.480;6.056;2023-05-11T02:55:12;101180.97;;;11.17;100.00
60015;BME280;45867;52.480;6.056;2023-05-11T02:57:39;101173.78;;;11.13;100.00
60015;BME280;45867;52.480;6.056;2023-05-11T03:00:05;101180.97;;;11.12;100.00
60015;BME280;45867;52.480;6.056;2023-05-11T03:02:30;101171.13;;;11.07;100.00
60015;BME280;45867;52.480;6.056;2023-05-11T03:04:56;101169.00;;;11.09;100.00
60015;BME280;45867;52.480;6.056;2023-05-11T03:07:21;101157.38;;;11.10;100.00
60015;BME280;45867;52.480;6.056;2023-05-11T03:09:47;101165.81;;;11.07;100.00
60015;BME280;45867;52.480;6.056;2023-05-11T03:12:13;101161.03;;;11.04;100.00
60015;BME280;45867;52.480;6.056;2023-05-11T03:14:39;101173.50;;;11.04;100.00
60015;BME280;45867;52.480;6.056;2023-05-11T03:17:05;101176.16;;;11.04;100.00
60015;BME280;45867;52.480;6.056;2023-05-11T03:19:31;101168.19;;;11.04;100.00
60015;BME280;45867;52.480;6.056;2023-05-11T03:21:57;101163.69;;;11.04;100.00
60015;BME280;45867;52.480;6.056;2023-05-11T03:24:24;101174.06;;;11.06;100.00
60015;BME280;45867;52.480;6.056;2023-05-11T03:26:53;101161.03;;;11.04;100.00
60015;BME280;45867;52.480;6.056;2023-05-11T03:29:19;101157.59;;;11.04;100.00
60015;BME280;45867;52.480;6.056;2023-05-11T03:31:45;101158.69;;;11.08;100.00
60015;BME280;45867;52.480;6.056;2023-05-11T03:34:11;101160.25;;;11.09;100.00
60015;BME280;45867;52.480;6.056;2023-05-11T03:36:37;101150.72;;;11.08;100.00
60015;BME280;45867;52.480;6.056;2023-05-11T03:39:03;101153.88;;;11.10;100.00
60015;BME280;45867;52.480;6.056;2023-05-11T03:41:31;101156.28;;;11.11;100.00
60015;BME280;45867;52.480;6.056;2023-05-11T03:43:58;101162.38;;;11.12;100.00
60015;BME280;45867;52.480;6.056;2023-05-11T03:46:25;101157.38;;;11.10;100.00
60015;BME280;45867;52.480;6.056;2023-05-11T03:48:51;101159.47;;;11.08;100.00
60015;BME280;45867;52.480;6.056;2023-05-11T03:51:18;101160.50;;;11.07;100.00
60015;BME280;45867;52.480;6.056;2023-05-11T03:53:44;101162.38;;;11.12;100.00
60015;BME280;45867;52.480;6.056;2023-05-11T03:56:10;101159.75;;;11.12;100.00
60015;BME280;45867;52.480;6.056;2023-05-11T03:58:39;101164.50;;;11.10;100.00
60015;BME280;45867;52.480;6.056;2023-05-11T04:01:07;101162.91;;;11.09;100.00
60015;BME280;45867;52.480;6.056;2023-05-11T04:03:34;101166.13;;;11.11;100.00
60015;BME280;45867;52.480;6.056;2023-05-11T04:06:00;101162.66;;;11.10;100.00
60015;BME280;45867;52.480;6.056;2023-05-11T04:08:26;101170.88;;;11.09;100.00
60015;BME280;45867;52.480;6.056;2023-05-11T04:10:51;101169.81;;;11.10;100.00
60015;BME280;45867;52.480;6.056;2023-05-11T04:13:16;101165.81;;;11.07;100.00
60015;BME280;45867;52.480;6.056;2023-05-11T04:15:42;101168.47;;;11.07;100.00
60015;BME280;45867;52.480;6.056;2023-05-11T04:18:07;101169.28;;;11.08;100.00
60015;BME280;45867;52.480;6.056;2023-05-11T04:20:32;101170.34;;;11.12;100.00
60015;BME280;45867;52.480;6.056;2023-05-11T04:22:58;101178.03;;;11.08;100.00
60015;BME280;45867;52.480;6.056;2023-05-11T04:25:23;101180.16;;;11.06;100.00
60015;BME280;45867;52.480;6.056;2023-05-11T04:27:48;101178.81;;;11.04;100.00
60015;BME280;45867;52.480;6.056;2023-05-11T04:30:14;101184.13;;;11.04;100.00
60015;BME280;45867;52.480;6.056;2023-05-11T04:32:39;101185.19;;;11.03;100.00
60015;BME280;45867;52.480;6.056;2023-05-11T04:35:05;101180.13;;;11.01;100.00
60015;BME280;45867;52.480;6.056;2023-05-11T04:37:30;101173.25;;;11.00;100.00
60015;BME280;45867;52.480;6.056;2023-05-11T04:39:56;101178.25;;;11.02;100.00
60015;BME280;45867;52.480;6.056;2023-05-11T04:42:21;101179.09;;;11.02;100.00
60015;BME280;45867;52.480;6.056;2023-05-11T04:44:47;101171.38;;;11.01;100.00
60015;BME280;45867;52.480;6.056;2023-05-11T04:47:13;101177.22;;;11.03;100.00
60015;BME280;45867;52.480;6.056;2023-05-11T04:49:38;101181.44;;;10.99;100.00
60015;BME280;45867;52.480;6.056;2023-05-11T04:52:03;101171.34;;;10.96;100.00
60015;BME280;45867;52.480;6.056;2023-05-11T04:54:29;101170.03;;;10.93;100.00
60015;BME280;45867;52.480;6.056;2023-05-11T04:56:55;101187.03;;;10.97;100.00
60015;BME280;45867;52.480;6.056;2023-05-11T04:59:20;101175.88;;;10.95;100.00
60015;BME280;45867;52.480;6.056;2023-05-11T05:01:46;101186.47;;;10.95;100.00
60015;BME280;45867;52.480;6.056;2023-05-11T05:04:11;101173.16;;;10.80;100.00
60015;BME280;45867;52.480;6.056;2023-05-11T05:06:36;101177.94;;;10.83;100.00
60015;BME280;45867;52.480;6.056;2023-05-11T05:09:02;101184.34;;;10.92;100.00
60015;BME280;45867;52.480;6.056;2023-05-11T05:11:28;101176.13;;;10.88;100.00
60015;BME280;45867;52.480;6.056;2023-05-11T05:13:53;101172.13;;;10.91;100.00
60015;BME280;45867;52.480;6.056;2023-05-11T05:16:18;101169.75;;;10.89;100.00
60015;BME280;45867;52.480;6.056;2023-05-11T05:18:44;101162.88;;;10.88;100.00
60015;BME280;45867;52.480;6.056;2023-05-11T05:21:09;101160.19;;;10.83;100.00
60015;BME280;45867;52.480;6.056;2023-05-11T05:23:34;101160.44;;;10.82;100.00
60015;BME280;45867;52.480;6.056;2023-05-11T05:26:00;101159.91;;;10.85;100.00
60015;BME280;45867;52.480;6.056;2023-05-11T05:28:25;101159.91;;;10.85;100.00
60015;BME280;45867;52.480;6.056;2023-05-11T05:30:50;101145.88;;;10.84;100.00
60015;BME280;45867;52.480;6.056;2023-05-11T05:33:16;101145.88;;;10.84;100.00
60015;BME280;45867;52.480;6.056;2023-05-11T05:35:41;101140.28;;;10.81;100.00
60015;BME280;45867;52.480;6.056;2023-05-11T05:38:08;101149.09;;;10.92;100.00
60015;BME280;45867;52.480;6.056;2023-05-11T05:40:33;101140.28;;;10.81;100.00
60015;BME280;45867;52.480;6.056;2023-05-11T05:43:01;101143.97;;;10.80;100.00
60015;BME280;45867;52.480;6.056;2023-05-11T05:45:27;101164.44;;;10.89;100.00
60015;BME280;45867;52.480;6.056;2023-05-11T05:47:52;101146.94;;;10.83;100.00
60015;BME280;45867;52.480;6.056;2023-05-11T05:50:18;101149.81;;;10.82;100.00
60015;BME280;45867;52.480;6.056;2023-05-11T05:52:43;101158.06;;;10.91;100.00
60015;BME280;45867;52.480;6.056;2023-05-11T05:55:09;101158.34;;;10.89;100.00
60015;BME280;45867;52.480;6.056;2023-05-11T05:57:34;101150.09;;;10.80;100.00
60015;BME280;45867;52.480;6.056;2023-05-11T05:59:59;101152.25;;;10.88;100.00
60015;BME280;45867;52.480;6.056;2023-05-11T06:02:25;101140.03;;;10.87;100.00
60015;BME280;45867;52.480;6.056;2023-05-11T06:04:50;101152.81;;;11.01;100.00
60015;BME280;45867;52.480;6.056;2023-05-11T06:07:15;101155.22;;;11.07;100.00
60015;BME280;45867;52.480;6.056;2023-05-11T06:09:41;101155.22;;;11.13;100.00
60015;BME280;45867;52.480;6.056;2023-05-11T06:12:06;101162.69;;;11.26;100.00
60015;BME280;45867;52.480;6.056;2023-05-11T06:14:33;101138.81;;;11.31;100.00
60015;BME280;45867;52.480;6.056;2023-05-11T06:16:58;101163.25;;;11.53;100.00
60015;BME280;45867;52.480;6.056;2023-05-11T06:19:23;101168.84;;;11.67;100.00
60015;BME280;45867;52.480;6.056;2023-05-11T06:21:49;101168.31;;;11.81;100.00
60015;BME280;45867;52.480;6.056;2023-05-11T06:24:14;101169.16;;;11.91;100.00
60015;BME280;45867;52.480;6.056;2023-05-11T06:26:39;101163.53;;;11.72;100.00
60015;BME280;45867;52.480;6.056;2023-05-11T06:29:06;101164.09;;;11.74;100.00
60015;BME280;45867;52.480;6.056;2023-05-11T06:31:32;101162.75;;;11.77;100.00
60015;BME280;45867;52.480;6.056;2023-05-11T06:33:57;101160.91;;;11.77;100.00
60015;BME280;45867;52.480;6.056;2023-05-11T06:36:22;101165.72;;;11.86;100.00
60015;BME280;45867;52.480;6.056;2023-05-11T06:38:47;101161.16;;;11.81;100.00
60015;BME280;45867;52.480;6.056;2023-05-11T06:41:13;101165.41;;;11.82;100.00
60015;BME280;45867;52.480;6.056;2023-05-11T06:43:38;101150.28;;;11.72;100.00
60015;BME280;45867;52.480;6.056;2023-05-11T06:46:04;101158.00;;;11.94;100.00
60015;BME280;45867;52.480;6.056;2023-05-11T06:48:30;101163.25;;;12.30;100.00
60015;BME280;45867;52.480;6.056;2023-05-11T06:50:56;101169.84;;;12.58;100.00
60015;BME280;45867;52.480;6.056;2023-05-11T06:53:21;101166.09;;;12.70;100.00
60015;BME280;45867;52.480;6.056;2023-05-11T06:55:46;101158.94;;;12.55;100.00
60015;BME280;45867;52.480;6.056;2023-05-11T06:58:12;101165.00;;;12.71;100.00
60015;BME280;45867;52.480;6.056;2023-05-11T07:00:38;101172.16;;;12.80;100.00
60015;BME280;45867;52.480;6.056;2023-05-11T07:03:04;101176.41;;;12.76;100.00
60015;BME280;45867;52.480;6.056;2023-05-11T07:05:29;101165.84;;;12.61;100.00
60015;BME280;45867;52.480;6.056;2023-05-11T07:07:55;101176.72;;;12.70;100.00
60015;BME280;45867;52.480;6.056;2023-05-11T07:10:21;101179.94;;;12.66;100.00
60015;BME280;45867;52.480;6.056;2023-05-11T07:12:46;101168.09;;;12.98;100.00
60015;BME280;45867;52.480;6.056;2023-05-11T07:15:12;101185.50;;;13.30;100.00
60015;BME280;45867;52.480;6.056;2023-05-11T07:17:37;101191.41;;;13.27;100.00
60015;BME280;45867;52.480;6.056;2023-05-11T07:20:02;101199.31;;;13.37;100.00
60015;BME280;45867;52.480;6.056;2023-05-11T07:22:28;101207.31;;;13.37;100.00
60015;BME280;45867;52.480;6.056;2023-05-11T07:24:53;101205.38;;;13.48;100.00
60015;BME280;45867;52.480;6.056;2023-05-11T07:27:18;101229.25;;;13.63;100.00
60015;BME280;45867;52.480;6.056;2023-05-11T07:29:44;101229.13;;;13.84;100.00
60015;BME280;45867;52.480;6.056;2023-05-11T07:32:09;101232.63;;;14.13;100.00
60015;BME280;45867;52.480;6.056;2023-05-11T07:34:35;101244.22;;;14.28;100.00
60015;BME280;45867;52.480;6.056;2023-05-11T07:37:00;101255.41;;;14.59;100.00
60015;BME280;45867;52.480;6.056;2023-05-11T07:39:25;101261.59;;;14.78;100.00
60015;BME280;45867;52.480;6.056;2023-05-11T07:41:51;101276.31;;;15.00;100.00
60015;BME280;45867;52.480;6.056;2023-05-11T07:44:16;101281.03;;;15.51;100.00
60015;BME280;45867;52.480;6.056;2023-05-11T07:46:42;101285.56;;;15.50;100.00
60015;BME280;45867;52.480;6.056;2023-05-11T07:49:07;101300.09;;;15.82;100.00
60015;BME280;45867;52.480;6.056;2023-05-11T07:51:35;101301.69;;;16.02;100.00
60015;BME280;45867;52.480;6.056;2023-05-11T07:54:00;101311.81;;;16.71;100.00
60015;BME280;45867;52.480;6.056;2023-05-11T07:56:26;101306.16;;;17.91;100.00
60015;BME280;45867;52.480;6.056;2023-05-11T07:58:51;101325.44;;;19.01;100.00
60015;BME280;45867;52.480;6.056;2023-05-11T08:01:16;101345.13;;;19.19;100.00
60015;BME280;45867;52.480;6.056;2023-05-11T08:03:42;101368.56;;;19.44;100.00
60015;BME280;45867;52.480;6.056;2023-05-11T08:06:07;101380.84;;;19.94;100.00
60015;BME280;45867;52.480;6.056;2023-05-11T08:08:32;101390.28;;;19.65;100.00
60015;BME280;45867;52.480;6.056;2023-05-11T08:10:59;101411.59;;;19.04;100.00
60015;BME280;45867;52.480;6.056;2023-05-11T08:13:25;101408.78;;;18.64;100.00
60015;BME280;45867;52.480;6.056;2023-05-11T08:15:50;101407.63;;;18.12;100.00
60015;BME280;45867;52.480;6.056;2023-05-11T08:18:16;101406.59;;;18.22;100.00
60015;BME280;45867;52.480;6.056;2023-05-11T08:20:42;101405.63;;;18.40;100.00
60015;BME280;45867;52.480;6.056;2023-05-11T08:23:07;101415.31;;;18.72;100.00
60015;BME280;45867;52.480;6.056;2023-05-11T08:25:34;101406.19;;;18.51;100.00
60015;BME280;45867;52.480;6.056;2023-05-11T08:28:00;101425.72;;;19.19;100.00
60015;BME280;45867;52.480;6.056;2023-05-11T08:30:26;101422.78;;;19.86;100.00
60015;BME280;45867;52.480;6.056;2023-05-11T08:32:51;101442.44;;;20.56;100.00
60015;BME280;45867;52.480;6.056;2023-05-11T08:35:17;101453.72;;;21.23;100.00
60015;BME280;45867;52.480;6.056;2023-05-11T08:37:42;101440.09;;;22.08;100.00
60015;BME280;45867;52.480;6.056;2023-05-11T08:40:10;101446.47;;;23.61;100.00
60015;BME280;45867;52.480;6.056;2023-05-11T08:42:39;101480.34;;;22.97;100.00
60015;BME280;45867;52.480;6.056;2023-05-11T08:45:05;101492.13;;;23.38;100.00
60015;BME280;45867;52.480;6.056;2023-05-11T08:47:32;101504.28;;;23.32;100.00
60015;BME280;45867;52.480;6.056;2023-05-11T08:49:57;101527.94;;;23.23;100.00
60015;BME280;45867;52.480;6.056;2023-05-11T08:52:24;101526.47;;;23.38;100.00
60015;BME280;45867;52.480;6.056;2023-05-11T08:54:49;101553.53;;;24.36;100.00
60015;BME280;45867;52.480;6.056;2023-05-11T08:57:15;101564.72;;;24.34;100.00
60015;BME280;45867;52.480;6.056;2023-05-11T08:59:44;101563.09;;;24.70;100.00
60015;BME280;45867;52.480;6.056;2023-05-11T09:02:16;101571.47;;;25.21;100.00
60015;BME280;45867;52.480;6.056;2023-05-11T09:04:42;101577.47;;;24.58;100.00
60015;BME280;45867;52.480;6.056;2023-05-11T09:07:10;101576.59;;;24.30;100.00
60015;BME280;45867;52.480;6.056;2023-05-11T09:09:36;101575.53;;;24.87;100.00
60015;BME280;45867;52.480;6.056;2023-05-11T09:12:01;101586.19;;;25.52;100.00
60015;BME280;45867;52.480;6.056;2023-05-11T09:14:27;101600.53;;;25.09;100.00
60015;BME280;45867;52.480;6.056;2023-05-11T09:16:53;101588.47;;;23.43;100.00
60015;BME280;45867;52.480;6.056;2023-05-11T09:19:19;101576.97;;;23.34;100.00
60015;BME280;45867;52.480;6.056;2023-05-11T09:21:46;101578.63;;;22.30;100.00
60015;BME280;45867;52.480;6.056;2023-05-11T09:24:11;101581.94;;;22.56;100.00
60015;BME280;45867;52.480;6.056;2023-05-11T09:26:37;101589.50;;;23.05;100.00
60015;BME280;45867;52.480;6.056;2023-05-11T09:29:03;101584.78;;;23.47;100.00
60015;BME280;45867;52.480;6.056;2023-05-11T09:31:44;101592.84;;;24.30;100.00
60015;BME280;45867;52.480;6.056;2023-05-11T09:36:45;101587.13;;;24.07;100.00
60015;BME280;45867;52.480;6.056;2023-05-11T09:39:12;101601.63;;;24.51;100.00
60015;BME280;45867;52.480;6.056;2023-05-11T09:41:38;101592.63;;;24.23;100.00
60015;BME280;45867;52.480;6.056;2023-05-11T09:44:11;101607.31;;;23.52;100.00
60015;BME280;45867;52.480;6.056;2023-05-11T09:46:43;101597.41;;;23.10;100.00
60015;BME280;45867;52.480;6.056;2023-05-11T09:49:10;101593.78;;;22.43;100.00
60015;BME280;45867;52.480;6.056;2023-05-11T09:51:37;101591.97;;;22.17;100.00
60015;BME280;45867;52.480;6.056;2023-05-11T09:54:20;101595.97;;;22.20;100.00
60015;BME280;45867;52.480;6.056;2023-05-11T09:56:50;101601.91;;;22.05;100.00
60015;BME280;45867;52.480;6.056;2023-05-11T09:59:38;101598.19;;;22.48;100.00
60015;BME280;45867;52.480;6.056;2023-05-11T10:04:52;101598.59;;;22.37;100.00
60015;BME280;45867;52.480;6.056;2023-05-11T10:07:33;101595.84;;;22.67;100.00
60015;BME280;45867;52.480;6.056;2023-05-11T10:10:06;101612.63;;;22.94;100.00
60015;BME280;45867;52.480;6.056;2023-05-11T10:12:32;101597.50;;;22.30;100.00
60015;BME280;45867;52.480;6.056;2023-05-11T10:15:05;101600.13;;;22.89;100.00
60015;BME280;45867;52.480;6.056;2023-05-11T10:17:32;101593.44;;;23.74;100.00
60015;BME280;45867;52.480;6.056;2023-05-11T10:19:59;101601.31;;;24.28;100.00
60015;BME280;45867;52.480;6.056;2023-05-11T10:22:26;101589.09;;;23.61;100.00
60015;BME280;45867;52.480;6.056;2023-05-11T10:24:53;101594.78;;;22.59;100.00
60015;BME280;45867;52.480;6.056;2023-05-11T10:27:21;101574.22;;;22.46;100.00
60015;BME280;45867;52.480;6.056;2023-05-11T10:29:47;101578.78;;;22.25;100.00
60015;BME280;45867;52.480;6.056;2023-05-11T10:32:15;101583.75;;;22.14;100.00
60015;BME280;45867;52.480;6.056;2023-05-11T10:34:41;101577.06;;;22.20;100.00
60015;BME280;45867;52.480;6.056;2023-05-11T10:37:07;101580.16;;;22.01;100.00
60015;BME280;45867;52.480;6.056;2023-05-11T10:39:37;101571.91;;;22.99;100.00
60015;BME280;45867;52.480;6.056;2023-05-11T10:56:02;101583.75;;;23.07;100.00
60015;BME280;45867;52.480;6.056;2023-05-11T10:58:39;101585.59;;;23.15;100.00
60015;BME280;45867;52.480;6.056;2023-05-11T11:01:55;101584.69;;;22.48;100.00
60015;BME280;45867;52.480;6.056;2023-05-11T11:04:13;101584.34;;;22.49;100.00
60015;BME280;45867;52.480;6.056;2023-05-11T11:06:41;101593.59;;;22.90;100.00
60015;BME280;45867;52.480;6.056;2023-05-11T11:09:08;101588.91;;;22.78;100.00
60015;BME280;45867;52.480;6.056;2023-05-11T11:11:42;101583.19;;;22.59;100.00
60015;BME280;45867;52.480;6.056;2023-05-11T11:14:14;101582.63;;;22.24;100.00
60015;BME280;45867;52.480;6.056;2023-05-11T11:16:42;101585.53;;;22.10;100.00
60015;BME280;45867;52.480;6.056;2023-05-11T11:21:58;101583.22;;;23.46;100.00
60015;BME280;45867;52.480;6.056;2023-05-11T11:27:02;101587.38;;;24.67;100.00
60015;BME280;45867;52.480;6.056;2023-05-11T11:29:29;101586.50;;;24.38;100.00
60015;BME280;45867;52.480;6.056;2023-05-11T11:31:54;101589.41;;;24.70;100.00
60015;BME280;45867;52.480;6.056;2023-05-11T11:39:47;101573.25;;;23.72;100.00
60015;BME280;45867;52.480;6.056;2023-05-11T11:42:16;101585.66;;;22.85;100.00
60015;BME280;45867;52.480;6.056;2023-05-11T11:44:45;101582.19;;;22.43;100.00
60015;BME280;45867;52.480;6.056;2023-05-11T11:47:21;101577.13;;;21.73;100.00
60015;BME280;45867;52.480;6.056;2023-05-11T11:49:52;101575.72;;;21.67;100.00
60015;BME280;45867;52.480;6.056;2023-05-11T11:54:59;101562.97;;;21.03;100.00
60015;BME280;45867;52.480;6.056;2023-05-11T11:59:53;101556.34;;;20.74;100.00
60015;BME280;45867;52.480;6.056;2023-05-11T12:02:19;101564.44;;;20.66;100.00
60015;BME280;45867;52.480;6.056;2023-05-11T12:07:46;101555.75;;;21.59;100.00
60015;BME280;45867;52.480;6.056;2023-05-11T12:10:13;101563.50;;;21.69;100.00
60015;BME280;45867;52.480;6.056;2023-05-11T12:12:39;101578.19;;;22.19;100.00
60015;BME280;45867;52.480;6.056;2023-05-11T12:15:06;101573.44;;;22.16;100.00
60015;BME280;45867;52.480;6.056;2023-05-11T12:17:32;101579.25;;;22.56;100.00
60015;BME280;45867;52.480;6.056;2023-05-11T12:20:15;101569.44;;;23.39;100.00
60015;BME280;45867;52.480;6.056;2023-05-11T12:22:41;101566.66;;;23.15;100.00
60015;BME280;45867;52.480;6.056;2023-05-11T12:25:08;101573.34;;;23.30;100.00
60015;BME280;45867;52.480;6.056;2023-05-11T12:27:47;101563.78;;;22.36;100.00
60015;BME280;45867;52.480;6.056;2023-05-11T12:30:22;101561.38;;;22.13;100.00
60015;BME280;45867;52.480;6.056;2023-05-11T12:32:48;101552.16;;;21.29;100.00
60015;BME280;45867;52.480;6.056;2023-05-11T12:35:21;101556.19;;;20.71;100.00
60015;BME280;45867;52.480;6.056;2023-05-11T12:37:47;101555.50;;;20.48;100.00
60015;BME280;45867;52.480;6.056;2023-05-11T12:40:12;101544.16;;;20.02;100.00
60015;BME280;45867;52.480;6.056;2023-05-11T12:42:38;101542.03;;;19.73;100.00
60015;BME280;45867;52.480;6.056;2023-05-11T12:45:06;101535.88;;;19.50;100.00
60015;BME280;45867;52.480;6.056;2023-05-11T12:47:34;101526.97;;;19.41;100.00
60015;BME280;45867;52.480;6.056;2023-05-11T12:49:59;101529.28;;;18.80;100.00
60015;BME280;45867;52.480;6.056;2023-05-11T12:52:25;101514.66;;;18.72;100.00
60015;BME280;45867;52.480;6.056;2023-05-11T12:54:50;101508.22;;;18.59;100.00
60015;BME280;45867;52.480;6.056;2023-05-11T12:57:29;101504.69;;;18.50;100.00
60015;BME280;45867;52.480;6.056;2023-05-11T13:02:48;101493.47;;;18.12;100.00
60015;BME280;45867;52.480;6.056;2023-05-11T13:05:15;101479.03;;;18.08;100.00
60015;BME280;45867;52.480;6.056;2023-05-11T13:07:40;101484.19;;;18.18;100.00
60015;BME280;45867;52.480;6.056;2023-05-11T13:10:08;101484.31;;;18.13;100.00
60015;BME280;45867;52.480;6.056;2023-05-11T13:12:34;101484.22;;;18.04;100.00
60015;BME280;45867;52.480;6.056;2023-05-11T13:15:08;101487.78;;;18.13;100.00
60015;BME280;45867;52.480;6.056;2023-05-11T13:17:36;101484.31;;;17.99;100.00
60015;BME280;45867;52.480;6.056;2023-05-11T13:20:24;101487.28;;;18.11;100.00
60015;BME280;45867;52.480;6.056;2023-05-11T13:25:33;101494.75;;;18.14;100.00
60015;BME280;45867;52.480;6.056;2023-05-11T13:27:59;101499.69;;;18.21;100.00
60015;BME280;45867;52.480;6.056;2023-05-11T13:30:26;101484.44;;;18.30;100.00
60015;BME280;45867;52.480;6.056;2023-05-11T13:32:51;101482.78;;;18.34;100.00